Terminal Aerodrome Forecast
Issued by NWS

Home | Current Version | Previous Version | Graphics & Text | Print | Product List | Glossary On
Versions: 1 2 3 4 5 6 7 8 9 10 11 12
342
FTUS42 KMHX 202344
TAFISO
TAF
KISO 202344Z 2100/2124 VRB03KT P6SM FEW040 SCT250
     FM210800 00000KT 3SM BR FEW006
     FM211400 VRB04KT P6SM SCT050
      AMD LTD TO CLD VIS AND WIND=

USA.gov is the U.S. government's official web portal to all federal, state and local government web resources and services.